Time;durP1;ratioP1;P1;durP2;ratioP2;P2;SDS_P1;SDS_P2;PMS_P1;PMS_P2;Temp;Humidity;BMP_temperature;BMP_pressure;BME280_temperature;BME280_humidity;BME280_pressure;Samples;Min_cycle;Max_cycle;Signal;HPM_P1;HPM_P2
2022/09/16 00:01:20;;;;;;;2.75;1.23;;;15.10;25.00;;;;;;5108521;27;34007;-77
2022/09/16 00:03:46;;;;;;;4.55;1.15;;;15.00;25.10;;;;;;5126867;27;34227;-77
2022/09/16 00:06:25;;;;;;;3.83;1.10;;;14.90;25.30;;;;;;5107776;27;36213;-77
2022/09/16 00:08:54;;;;;;;2.38;1.20;;;14.90;25.50;;;;;;5108032;27;34214;-77
2022/09/16 00:11:20;;;;;;;0.85;0.85;;;14.90;25.50;;;;;;5107866;27;34128;-77
2022/09/16 00:13:47;;;;;;;5.97;1.30;;;14.80;25.50;;;;;;5091594;27;34340;-77
2022/09/16 00:16:19;;;;;;;3.55;1.30;;;14.70;25.10;;;;;;5107654;27;35420;-77
2022/09/16 00:18:45;;;;;;;4.47;1.20;;;14.60;25.20;;;;;;5073244;28;34382;-77
2022/09/16 00:21:12;;;;;;;1.40;1.20;;;14.60;25.10;;;;;;5087785;28;34238;-78
2022/09/16 00:23:38;;;;;;;1.90;0.90;;;14.50;25.40;;;;;;5093915;27;34685;-77
2022/09/16 00:26:05;;;;;;;3.33;1.50;;;14.50;25.70;;;;;;5108006;27;34336;-77
2022/09/16 00:28:31;;;;;;;3.17;1.15;;;14.40;25.20;;;;;;5107825;27;34167;-77
2022/09/16 00:31:00;;;;;;;2.13;1.23;;;14.40;25.30;;;;;;5090509;27;34153;-77
2022/09/16 00:33:26;;;;;;;8.43;1.85;;;14.30;25.70;;;;;;5107798;27;34519;-77
2022/09/16 00:36:02;;;;;;;7.03;1.13;;;14.30;25.30;;;;;;5107039;27;35970;-77
2022/09/16 00:38:28;;;;;;;4.03;1.20;;;14.20;25.80;;;;;;5107794;27;34185;-77
2022/09/16 00:40:54;;;;;;;2.85;1.38;;;14.10;25.60;;;;;;5108118;27;34125;-77
2022/09/16 00:43:20;;;;;;;3.35;1.15;;;14.10;26.00;;;;;;5108290;27;34150;-77
2022/09/16 00:45:59;;;;;;;5.20;1.17;;;14.00;25.70;;;;;;5089979;27;34206;-77
2022/09/16 00:48:26;;;;;;;1.73;1.10;;;14.00;26.20;;;;;;5107389;27;34101;-77
2022/09/16 00:50:59;;;;;;;4.22;1.30;;;13.90;25.90;;;;;;5103444;28;34360;-77
2022/09/16 00:53:31;;;;;;;4.97;1.50;;;13.90;25.70;;;;;;5084010;27;34314;-77
2022/09/16 00:56:00;;;;;;;1.50;0.90;;;13.90;25.60;;;;;;5107392;27;35903;-76
2022/09/16 00:58:40;;;;;;;2.03;1.30;;;13.80;25.60;;;;;;5087140;28;34073;-77
2022/09/16 01:01:09;;;;;;;1.25;1.00;;;13.80;26.10;;;;;;5104253;28;34153;-77
2022/09/16 01:03:44;;;;;;;2.85;1.35;;;13.80;26.00;;;;;;5079200;28;34367;-77
2022/09/16 01:06:12;;;;;;;4.15;1.25;;;13.80;25.70;;;;;;5087204;28;36278;-77
2022/09/16 01:08:41;;;;;;;3.95;1.20;;;13.80;25.80;;;;;;5093002;27;34260;-76
2022/09/16 01:11:07;;;;;;;2.33;1.00;;;13.70;25.80;;;;;;5090716;27;34357;-76
2022/09/16 01:13:34;;;;;;;3.30;1.35;;;13.70;25.80;;;;;;5107400;27;34013;-77
2022/09/16 01:16:19;;;;;;;4.03;1.30;;;13.70;26.50;;;;;;5107338;27;34964;-77
2022/09/16 01:18:58;;;;;;;3.58;1.52;;;13.70;26.40;;;;;;5090316;27;34178;-77
2022/09/16 01:21:37;;;;;;;4.72;1.40;;;13.70;26.00;;;;;;5106661;27;34036;-77
2022/09/16 01:24:25;;;;;;;3.65;1.30;;;13.60;26.20;;;;;;5105025;28;34335;-77
2022/09/16 01:27:26;;;;;;;2.85;1.20;;;13.60;26.70;;;;;;5086343;27;36391;-77
2022/09/16 01:30:12;;;;;;;2.72;1.20;;;13.50;26.20;;;;;;5089870;28;34175;-77
2022/09/16 01:33:14;;;;;;;3.63;1.10;;;13.50;26.00;;;;;;5086640;28;34058;-77
2022/09/16 01:35:54;;;;;;;2.78;1.80;;;13.50;26.60;;;;;;5081710;28;34417;-77
2022/09/16 01:38:47;;;;;;;3.72;1.30;;;13.40;25.80;;;;;;5084837;28;36389;-77
2022/09/16 01:41:41;;;;;;;5.68;1.20;;;13.40;26.60;;;;;;5096234;28;34066;-77
2022/09/16 01:44:26;;;;;;;1.05;0.95;;;13.30;27.00;;;;;;5104792;27;34040;-77
2022/09/16 01:47:10;;;;;;;6.88;1.30;;;13.30;27.00;;;;;;5115500;27;34067;-77
2022/09/16 01:49:53;;;;;;;3.35;1.15;;;13.30;27.00;;;;;;5099110;27;35787;-77
2022/09/16 01:52:41;;;;;;;3.83;1.30;;;13.30;26.60;;;;;;5086477;28;34154;-77
2022/09/16 01:55:15;;;;;;;2.92;1.30;;;13.40;26.10;;;;;;5071797;28;34164;-77
2022/09/16 01:58:05;;;;;;;4.38;1.17;;;13.40;24.60;;;;;;5104440;28;34155;-77
2022/09/16 02:00:32;;;;;;;2.78;1.30;;;13.40;25.30;;;;;;5085234;27;36461;-77
2022/09/16 02:03:05;;;;;;;2.15;1.13;;;13.40;25.20;;;;;;5089707;27;34110;-77
2022/09/16 02:05:49;;;;;;;3.45;1.13;;;13.40;25.00;;;;;;5124927;27;34135;-77
2022/09/16 02:08:24;;;;;;;2.00;1.30;;;13.40;25.60;;;;;;5106564;27;34348;-77
2022/09/16 02:10:56;;;;;;;3.25;1.30;;;13.40;25.20;;;;;;5099465;27;35808;-77
2022/09/16 02:13:32;;;;;;;4.10;1.20;;;13.40;25.60;;;;;;5088860;27;34219;-77
2022/09/16 02:16:04;;;;;;;1.70;1.10;;;13.40;24.80;;;;;;5082580;28;34290;-78
2022/09/16 02:18:36;;;;;;;1.63;1.00;;;13.40;24.40;;;;;;5070877;27;34291;-77
2022/09/16 02:21:05;;;;;;;2.63;1.30;;;13.50;24.80;;;;;;5105388;27;35600;-77
2022/09/16 02:23:38;;;;;;;5.60;1.20;;;13.50;24.50;;;;;;5105548;27;34218;-78
2022/09/16 02:26:06;;;;;;;8.57;1.30;;;13.50;25.00;;;;;;5103155;28;34274;-77
2022/09/16 02:28:37;;;;;;;2.30;1.13;;;13.50;24.20;;;;;;5085572;28;34181;-77
2022/09/16 02:31:07;;;;;;;4.95;1.13;;;13.50;24.30;;;;;;5085552;28;35800;-77
2022/09/16 02:33:41;;;;;;;4.07;1.40;;;13.50;25.30;;;;;;5097917;27;34168;-77
2022/09/16 02:36:09;;;;;;;2.47;0.93;;;13.50;25.20;;;;;;5108640;27;34081;-77
2022/09/16 02:38:42;;;;;;;1.40;0.90;;;13.50;25.60;;;;;;5109805;27;34543;-77
2022/09/16 02:41:13;;;;;;;4.75;1.08;;;13.50;25.00;;;;;;5109433;27;35543;-77
2022/09/16 02:43:40;;;;;;;5.35;1.25;;;13.50;24.70;;;;;;5093740;27;34395;-77
2022/09/16 02:46:30;;;;;;;3.47;1.33;;;13.50;25.10;;;;;;5093046;27;34240;-77
2022/09/16 02:49:11;;;;;;;1.92;1.13;;;13.50;25.70;;;;;;5122731;27;34167;-76
2022/09/16 02:51:58;;;;;;;2.90;1.20;;;13.60;25.00;;;;;;5106781;27;34191;-77
2022/09/16 02:54:38;;;;;;;4.13;1.20;;;13.60;26.00;;;;;;5085726;27;34096;-77
2022/09/16 02:57:04;;;;;;;1.80;1.17;;;13.60;25.10;;;;;;5094279;27;34089;-77
2022/09/16 02:59:30;;;;;;;4.80;1.55;;;13.60;25.00;;;;;;5109928;27;34456;-77
2022/09/16 03:01:59;;;;;;;3.75;1.27;;;13.60;25.20;;;;;;5127426;27;34992;-77
2022/09/16 03:04:25;;;;;;;5.88;1.40;;;13.60;25.00;;;;;;5098801;28;34092;-77
2022/09/16 03:06:51;;;;;;;3.58;1.35;;;13.60;24.80;;;;;;5125370;27;34154;-77
2022/09/16 03:09:17;;;;;;;2.10;1.00;;;13.60;25.00;;;;;;5109426;27;34492;-77
2022/09/16 03:12:07;;;;;;;2.70;1.48;;;13.60;25.40;;;;;;5108922;27;35618;-77
2022/09/16 03:14:56;;;;;;;2.35;1.20;;;13.60;25.60;;;;;;5093900;27;34127;-77
2022/09/16 03:17:53;;;;;;;4.88;1.45;;;13.70;25.80;;;;;;5108870;27;34162;-77
2022/09/16 03:20:43;;;;;;;3.15;1.30;;;13.70;25.90;;;;;;5109348;27;34206;-77
2022/09/16 03:23:43;;;;;;;6.45;1.48;;;13.70;25.80;;;;;;5102542;27;36056;-76
2022/09/16 03:26:23;;;;;;;1.45;1.02;;;13.70;26.60;;;;;;5125755;27;34154;-77
2022/09/16 03:29:11;;;;;;;3.83;1.77;;;13.70;25.50;;;;;;5092959;27;34652;-77
2022/09/16 03:31:54;;;;;;;2.42;1.25;;;13.80;25.50;;;;;;5111353;27;34185;-77
2022/09/16 03:34:26;;;;;;;2.22;1.20;;;13.80;26.10;;;;;;5075081;27;35637;-76
2022/09/16 03:36:58;;;;;;;6.13;1.35;;;13.80;25.80;;;;;;5111288;27;34124;-76
2022/09/16 03:39:24;;;;;;;3.30;1.40;;;13.80;25.40;;;;;;5108054;27;34157;-76
2022/09/16 03:41:50;;;;;;;2.30;1.20;;;13.80;25.60;;;;;;5127348;27;34159;-76
2022/09/16 03:44:16;;;;;;;2.63;1.30;;;13.80;25.50;;;;;;5107917;27;36555;-76
2022/09/16 03:46:43;;;;;;;2.25;1.10;;;13.80;25.30;;;;;;5108663;27;34039;-76
2022/09/16 03:49:10;;;;;;;3.50;1.30;;;13.80;26.00;;;;;;5107623;27;34154;-76
2022/09/16 03:51:36;;;;;;;2.00;1.30;;;13.80;25.80;;;;;;5108707;27;34400;-76
2022/09/16 03:54:13;;;;;;;2.03;1.30;;;13.90;26.10;;;;;;5074451;27;36262;-75
2022/09/16 03:56:39;;;;;;;3.95;1.60;;;13.90;26.70;;;;;;5125391;27;34372;-76
2022/09/16 03:59:05;;;;;;;1.90;1.45;;;13.90;26.00;;;;;;5127157;27;34131;-76
2022/09/16 04:01:31;;;;;;;3.33;1.35;;;13.90;25.70;;;;;;5108685;27;34216;-76
2022/09/16 04:03:57;;;;;;;3.42;1.60;;;13.90;26.00;;;;;;5091202;27;35735;-76
2022/09/16 04:06:23;;;;;;;2.03;1.30;;;13.90;26.60;;;;;;5116864;27;34230;-75
2022/09/16 04:08:50;;;;;;;5.93;1.58;;;13.90;26.40;;;;;;5126576;27;34646;-75
2022/09/16 04:11:16;;;;;;;4.55;1.40;;;13.90;27.40;;;;;;5092930;28;34374;-75
2022/09/16 04:13:42;;;;;;;3.75;1.50;;;13.90;26.60;;;;;;5106763;27;35893;-75
2022/09/16 04:16:08;;;;;;;7.97;1.52;;;13.90;26.30;;;;;;5090974;27;34376;-75
2022/09/16 04:18:34;;;;;;;2.95;1.55;;;13.90;26.20;;;;;;5091301;27;34210;-75
2022/09/16 04:21:02;;;;;;;3.58;1.27;;;13.90;26.30;;;;;;5126476;27;34057;-75
2022/09/16 04:23:30;;;;;;;6.85;1.73;;;13.90;26.20;;;;;;5125320;27;35247;-75
2022/09/16 04:25:58;;;;;;;4.53;1.58;;;13.90;26.10;;;;;;5126720;27;34032;-75
2022/09/16 04:28:25;;;;;;;3.03;1.70;;;13.90;25.80;;;;;;5108879;27;34080;-75
2022/09/16 04:30:51;;;;;;;3.33;1.70;;;13.90;26.30;;;;;;5108040;27;34416;-75
2022/09/16 04:33:18;;;;;;;2.85;1.60;;;13.90;25.90;;;;;;5107169;27;35629;-75
2022/09/16 04:35:44;;;;;;;2.75;1.60;;;14.00;26.00;;;;;;5098972;28;34103;-75
2022/09/16 04:38:10;;;;;;;2.83;1.73;;;14.00;26.20;;;;;;5087671;28;34314;-75
2022/09/16 04:40:38;;;;;;;1.65;1.40;;;14.00;25.80;;;;;;5087676;28;34584;-75
2022/09/16 04:43:04;;;;;;;1.85;1.50;;;14.00;26.20;;;;;;5087530;28;35618;-75
2022/09/16 04:45:30;;;;;;;3.35;1.67;;;14.00;26.40;;;;;;5090162;27;34318;-75
2022/09/16 04:47:57;;;;;;;1.92;1.50;;;14.00;26.20;;;;;;5107504;27;34201;-75
2022/09/16 04:50:24;;;;;;;3.72;1.55;;;14.00;26.00;;;;;;5125744;27;34159;-75
2022/09/16 04:52:50;;;;;;;1.85;1.70;;;14.00;26.30;;;;;;5086811;28;35720;-75
2022/09/16 04:55:17;;;;;;;3.35;1.58;;;14.00;26.10;;;;;;5124748;27;34136;-75
2022/09/16 04:57:44;;;;;;;2.78;1.70;;;14.00;26.20;;;;;;5105777;27;34199;-75
2022/09/16 05:00:10;;;;;;;3.97;2.05;;;14.00;26.10;;;;;;5090660;27;34165;-75
2022/09/16 05:02:36;;;;;;;1.77;1.48;;;14.00;26.70;;;;;;5122711;27;34353;-75
2022/09/16 05:05:02;;;;;;;3.92;1.63;;;14.00;26.00;;;;;;5103101;27;34317;-75
2022/09/16 05:07:28;;;;;;;2.03;1.20;;;14.00;26.20;;;;;;5073219;27;34095;-75
2022/09/16 05:09:55;;;;;;;3.15;1.60;;;14.00;26.70;;;;;;5107571;27;34184;-75
2022/09/16 05:12:21;;;;;;;3.90;1.15;;;14.00;26.80;;;;;;5090130;27;36614;-75
2022/09/16 05:14:47;;;;;;;4.03;1.38;;;14.00;26.10;;;;;;5094184;27;34719;-75
2022/09/16 05:17:12;;;;;;;5.82;1.30;;;14.00;26.70;;;;;;5069942;28;34287;-75
2022/09/16 05:19:38;;;;;;;6.05;1.50;;;14.00;26.00;;;;;;5086766;28;34651;-76
2022/09/16 05:22:06;;;;;;;6.28;1.63;;;14.00;26.20;;;;;;5086801;28;36315;-75
2022/09/16 05:24:35;;;;;;;3.72;1.65;;;14.00;25.80;;;;;;5086118;28;34222;-75
2022/09/16 05:27:01;;;;;;;2.22;1.10;;;14.00;25.30;;;;;;5086506;28;34261;-75
2022/09/16 05:29:27;;;;;;;1.45;1.30;;;14.00;25.80;;;;;;5104526;28;34147;-75
2022/09/16 05:31:53;;;;;;;3.15;1.42;;;13.90;25.60;;;;;;5104341;28;34943;-75
2022/09/16 05:34:22;;;;;;;4.75;1.95;;;14.00;25.70;;;;;;5085958;28;34296;-75
2022/09/16 05:36:49;;;;;;;5.88;1.58;;;13.90;25.80;;;;;;5085935;27;34396;-76
2022/09/16 05:39:17;;;;;;;2.55;1.10;;;13.90;26.00;;;;;;5105137;27;34447;-76
2022/09/16 05:41:44;;;;;;;5.38;1.48;;;13.90;26.00;;;;;;5107263;27;34315;-76
2022/09/16 05:44:11;;;;;;;1.40;1.10;;;13.90;25.90;;;;;;5107110;27;34162;-76
2022/09/16 05:46:39;;;;;;;3.97;1.08;;;13.90;25.70;;;;;;5106800;27;34286;-75
2022/09/16 05:49:05;;;;;;;2.13;1.10;;;13.90;25.60;;;;;;5113714;27;34346;-75
2022/09/16 05:51:31;;;;;;;2.03;1.40;;;13.90;25.90;;;;;;5085797;28;36303;-75
2022/09/16 05:53:58;;;;;;;3.25;1.00;;;13.90;25.70;;;;;;5103218;27;34239;-76
2022/09/16 05:56:26;;;;;;;1.98;1.10;;;13.90;26.30;;;;;;5104981;27;34203;-76
2022/09/16 05:58:57;;;;;;;4.15;1.20;;;14.00;26.20;;;;;;5106566;27;34166;-75
2022/09/16 06:01:26;;;;;;;5.30;1.48;;;14.00;25.90;;;;;;5105272;27;35672;-76
2022/09/16 06:03:54;;;;;;;7.65;1.30;;;14.10;25.90;;;;;;5102250;27;34172;-75
2022/09/16 06:06:26;;;;;;;2.42;1.30;;;14.10;25.90;;;;;;5086845;28;34119;-76
2022/09/16 06:08:55;;;;;;;1.38;1.15;;;14.10;25.60;;;;;;5103907;28;34266;-75
2022/09/16 06:11:21;;;;;;;3.63;1.10;;;14.10;25.40;;;;;;5086500;27;35659;-76
2022/09/16 06:13:54;;;;;;;4.55;1.38;;;14.20;24.80;;;;;;5115762;27;34243;-76
2022/09/16 06:16:20;;;;;;;2.72;1.50;;;14.30;25.70;;;;;;5123872;27;34301;-75
2022/09/16 06:18:46;;;;;;;1.80;1.23;;;14.30;24.80;;;;;;5103166;27;34447;-75
2022/09/16 06:21:18;;;;;;;6.47;1.42;;;14.40;24.70;;;;;;5106349;27;35639;-75
2022/09/16 06:23:44;;;;;;;3.53;1.55;;;14.50;24.80;;;;;;5105955;27;34105;-76
2022/09/16 06:26:13;;;;;;;2.20;1.30;;;14.60;24.20;;;;;;5106184;27;34266;-76
2022/09/16 06:28:50;;;;;;;6.32;1.40;;;14.70;25.00;;;;;;5104886;27;34451;-76
2022/09/16 06:31:28;;;;;;;2.58;1.00;;;14.80;24.60;;;;;;5105078;27;35724;-76
2022/09/16 06:33:57;;;;;;;3.58;1.35;;;14.90;25.10;;;;;;5105524;27;34280;-76
2022/09/16 06:36:29;;;;;;;4.13;1.23;;;15.00;24.90;;;;;;5105441;27;34290;-76
2022/09/16 06:38:58;;;;;;;3.40;1.20;;;15.10;23.20;;;;;;5088554;27;34350;-79
2022/09/16 06:41:30;;;;;;;2.42;1.40;;;15.20;22.70;;;;;;5105819;27;36055;-76
2022/09/16 06:44:02;;;;;;;3.75;1.40;;;15.20;23.00;;;;;;5105447;27;34286;-76
2022/09/16 06:46:53;;;;;;;2.15;1.50;;;15.40;23.10;;;;;;5086182;27;34199;-77
2022/09/16 06:49:19;;;;;;;2.40;1.10;;;15.60;22.70;;;;;;5106825;27;34222;-77
2022/09/16 06:51:59;;;;;;;5.00;1.30;;;15.70;23.00;;;;;;5101952;27;35843;-76
2022/09/16 06:54:25;;;;;;;2.67;1.30;;;15.70;22.60;;;;;;5099884;28;34096;-75
2022/09/16 06:56:58;;;;;;;3.17;1.10;;;15.70;22.90;;;;;;5101573;27;33681;-77
2022/09/16 06:59:28;;;;;;;2.65;0.90;;;15.80;21.90;;;;;;5103277;27;34354;-76
2022/09/16 07:02:00;;;;;;;2.95;1.30;;;15.80;21.90;;;;;;5083957;27;36368;-77
2022/09/16 07:04:34;;;;;;;1.95;1.10;;;15.90;22.40;;;;;;5096286;27;34522;-79
2022/09/16 07:07:11;;;;;;;4.85;1.27;;;15.90;22.50;;;;;;5103865;27;34537;-82
2022/09/16 07:09:40;;;;;;;3.97;1.27;;;16.00;21.40;;;;;;5092191;27;34348;-78
2022/09/16 07:12:07;;;;;;;2.78;1.00;;;16.00;21.80;;;;;;5099336;27;35881;-77
2022/09/16 07:14:44;;;;;;;2.17;1.33;;;16.00;21.80;;;;;;5100006;27;34185;-77
2022/09/16 07:17:15;;;;;;;2.38;1.40;;;16.10;20.80;;;;;;5106000;27;34317;-78
2022/09/16 07:19:47;;;;;;;2.80;1.50;;;16.20;22.20;;;;;;5089798;27;34682;-78
2022/09/16 07:22:13;;;;;;;3.92;1.63;;;16.30;21.20;;;;;;5088559;27;35657;-77
2022/09/16 07:25:23;;;;;;;1.27;1.10;;;16.30;21.10;;;;;;5109647;27;34255;-78
2022/09/16 07:27:59;;;;;;;3.15;1.38;;;16.40;19.30;;;;;;5111078;27;34221;-76
2022/09/16 07:30:29;;;;;;;3.20;1.20;;;16.50;20.60;;;;;;5086842;28;34086;-78
2022/09/16 07:33:22;;;;;;;4.25;1.48;;;16.60;20.90;;;;;;5106846;27;35769;-77
2022/09/16 07:36:17;;;;;;;5.70;1.50;;;16.60;19.90;;;;;;5090050;27;34366;-78
2022/09/16 07:38:53;;;;;;;1.65;1.30;;;16.70;19.70;;;;;;5095042;27;34443;-78
2022/09/16 07:41:31;;;;;;;3.08;1.50;;;16.70;19.60;;;;;;5110522;27;34412;-84
2022/09/16 07:44:03;;;;;;;3.55;1.20;;;16.70;17.90;;;;;;5113384;27;35680;-79
2022/09/16 07:46:46;;;;;;;1.55;1.10;;;16.70;19.70;;;;;;5108754;27;34274;-79
2022/09/16 07:49:25;;;;;;;5.45;1.40;;;16.70;16.90;;;;;;5090969;27;34261;-78
2022/09/16 07:51:51;;;;;;;3.45;1.17;;;16.90;19.90;;;;;;5094554;27;34205;-78
2022/09/16 07:54:44;;;;;;;6.68;1.27;;;17.00;19.60;;;;;;5094116;27;35633;-81
2022/09/16 07:57:30;;;;;;;4.65;1.05;;;17.10;17.90;;;;;;5104289;27;34546;-80
2022/09/16 07:59:59;;;;;;;2.00;1.33;;;17.10;15.60;;;;;;5119839;27;33921;-77
2022/09/16 08:02:25;;;;;;;1.88;1.00;;;17.00;18.60;;;;;;5100855;27;34572;-78
2022/09/16 08:07:40;;;;;;;3.15;1.08;;;16.90;19.10;;;;;;5063624;27;34284;-79
2022/09/16 08:10:11;;;;;;;2.47;0.90;;;17.00;19.00;;;;;;5130216;27;34113;-78
2022/09/16 08:12:51;;;;;;;3.75;1.00;;;17.00;18.70;;;;;;5096474;27;34385;-84
2022/09/16 08:15:24;;;;;;;3.83;1.02;;;17.00;17.50;;;;;;5109931;27;36147;-78
2022/09/16 08:17:50;;;;;;;3.13;0.98;;;17.00;18.50;;;;;;5145948;27;34294;-78
2022/09/16 08:20:20;;;;;;;2.30;0.80;;;17.00;18.30;;;;;;5117973;27;34280;-78
2022/09/16 08:23:07;;;;;;;3.55;1.00;;;17.10;17.80;;;;;;5133695;27;34510;-76
2022/09/16 08:25:59;;;;;;;2.05;0.82;;;17.20;16.40;;;;;;5128609;27;34112;-78
2022/09/16 08:28:27;;;;;;;1.05;0.75;;;17.20;17.70;;;;;;5113873;27;34228;-78
2022/09/16 08:31:01;;;;;;;2.13;0.65;;;17.30;17.00;;;;;;5135563;27;34212;-78
2022/09/16 08:33:31;;;;;;;3.50;0.90;;;17.30;17.10;;;;;;5107309;27;34043;-77
2022/09/16 08:36:04;;;;;;;2.38;0.88;;;17.40;17.80;;;;;;5106540;27;34234;-78
2022/09/16 08:38:43;;;;;;;4.32;0.77;;;17.40;15.40;;;;;;5067228;28;34252;-78
2022/09/16 08:41:48;;;;;;;0.80;0.80;;;17.30;17.20;;;;;;5068483;28;34035;-77
2022/09/16 08:44:31;;;;;;;3.97;0.73;;;17.40;15.90;;;;;;5067000;28;34489;-80
2022/09/16 08:47:17;;;;;;;1.67;0.50;;;17.30;13.20;;;;;;5082039;28;34492;-77
2022/09/16 08:49:45;;;;;;;0.95;0.63;;;17.30;15.70;;;;;;5085903;28;34219;-82
2022/09/16 08:52:28;;;;;;;2.00;0.55;;;17.40;16.50;;;;;;5070462;28;34323;-81
2022/09/16 08:55:01;;;;;;;2.72;0.60;;;17.50;14.60;;;;;;5070555;28;34068;-77
2022/09/16 08:57:31;;;;;;;0.88;0.73;;;17.60;16.60;;;;;;5085240;28;36276;-80
2022/09/16 09:00:03;;;;;;;1.02;0.60;;;17.80;16.30;;;;;;5061567;28;33631;-79
2022/09/16 09:02:40;;;;;;;0.90;0.70;;;17.90;15.50;;;;;;5049065;28;34139;-76
2022/09/16 09:05:16;;;;;;;3.58;0.60;;;18.10;14.70;;;;;;5031516;28;34590;-79
2022/09/16 09:08:10;;;;;;;0.60;0.50;;;18.30;15.30;;;;;;5080738;28;34316;-78
2022/09/16 09:10:58;;;;;;;3.00;0.50;;;18.50;10.80;;;;;;5056715;28;34669;-78
2022/09/16 09:13:48;;;;;;;2.92;0.60;;;18.70;13.30;;;;;;5070350;28;34188;-80
2022/09/16 09:16:27;;;;;;;11.48;0.70;;;19.00;12.90;;;;;;5070218;28;34145;-77
2022/09/16 09:19:17;;;;;;;5.20;0.68;;;19.10;12.70;;;;;;5053027;28;35653;-78
2022/09/16 09:22:04;;;;;;;2.05;0.70;;;19.40;12.80;;;;;;5068817;28;34444;-81
2022/09/16 09:25:05;;;;;;;2.60;0.80;;;19.60;12.90;;;;;;5071164;28;34049;-82
2022/09/16 09:27:39;;;;;;;0.85;0.52;;;19.90;5.70;;;;;;5061474;28;34382;-83
2022/09/16 09:30:26;;;;;;;1.35;0.52;;;20.00;12.70;;;;;;5056062;28;34616;-76
2022/09/16 09:33:16;;;;;;;2.65;0.85;;;19.90;9.80;;;;;;5086336;28;34321;-78
2022/09/16 09:36:21;;;;;;;0.63;0.45;;;19.90;11.40;;;;;;5070787;28;34215;-77
2022/09/16 09:39:09;;;;;;;1.45;0.75;;;19.80;8.80;;;;;;5047905;28;33999;-78
2022/09/16 09:41:44;;;;;;;2.08;0.73;;;19.40;8.80;;;;;;5052975;28;36476;-76
2022/09/16 09:44:40;;;;;;;1.77;0.77;;;19.20;11.10;;;;;;5065918;28;34357;-77
2022/09/16 09:47:12;;;;;;;2.05;0.60;;;19.00;10.10;;;;;;5053912;28;34119;-81
2022/09/16 09:49:45;;;;;;;4.03;0.73;;;18.90;11.60;;;;;;5068375;28;34555;-81
2022/09/16 09:52:24;;;;;;;3.70;0.80;;;18.90;11.70;;;;;;5062399;28;36475;-76
2022/09/16 09:54:51;;;;;;;1.35;0.55;;;18.90;12.50;;;;;;5051201;28;34159;-76
2022/09/16 09:57:36;;;;;;;6.00;1.00;;;18.90;13.90;;;;;;5084730;28;34209;-76
2022/09/16 10:00:11;;;;;;;2.70;0.90;;;18.80;10.60;;;;;;5065458;28;35788;-77
2022/09/16 10:02:42;;;;;;;4.40;0.88;;;18.80;13.80;;;;;;5063186;27;37019;-76
2022/09/16 10:05:22;;;;;;;1.17;0.80;;;18.60;13.40;;;;;;5112360;27;34400;-76
2022/09/16 10:07:51;;;;;;;2.25;0.82;;;18.70;11.90;;;;;;5125290;27;34064;-76
2022/09/16 10:10:22;;;;;;;2.15;0.73;;;18.90;12.90;;;;;;5094390;27;34407;-80
2022/09/16 10:12:49;;;;;;;1.58;0.80;;;19.30;11.40;;;;;;5127807;27;34471;-77
2022/09/16 10:15:23;;;;;;;1.80;0.60;;;19.60;11.80;;;;;;5107960;27;34315;-81
2022/09/16 10:17:50;;;;;;;0.60;0.60;;;19.70;4.70;;;;;;5094242;27;34290;-82
2022/09/16 10:20:33;;;;;;;0.60;0.60;;;19.70;11.30;;;;;;5111754;27;34343;-81
2022/09/16 10:23:08;;;;;;;2.17;0.60;;;19.50;5.20;;;;;;5091469;27;35614;-77
2022/09/16 10:25:34;;;;;;;2.25;0.68;;;19.30;11.40;;;;;;5108454;27;34328;-77
2022/09/16 10:28:04;;;;;;;1.88;0.60;;;19.20;11.60;;;;;;5107571;27;34211;-77
2022/09/16 10:30:43;;;;;;;2.05;0.70;;;19.20;11.50;;;;;;5109724;27;34239;-79
2022/09/16 10:33:17;;;;;;;0.95;0.55;;;19.10;6.70;;;;;;5098920;27;36248;-76
2022/09/16 10:35:57;;;;;;;2.58;0.70;;;19.00;10.70;;;;;;5087669;28;34144;-78
2022/09/16 10:38:26;;;;;;;0.60;0.60;;;18.80;9.00;;;;;;5088293;28;34164;-77
2022/09/16 10:40:56;;;;;;;1.98;0.60;;;18.50;11.90;;;;;;5075398;27;34287;-77
2022/09/16 10:43:24;;;;;;;2.05;0.47;;;18.40;11.70;;;;;;5106658;27;36630;-77
2022/09/16 10:45:52;;;;;;;0.30;0.30;;;18.20;12.10;;;;;;5090400;27;34209;-77
2022/09/16 10:48:23;;;;;;;2.10;0.90;;;18.10;12.00;;;;;;5107294;27;34177;-76
2022/09/16 10:50:56;;;;;;;0.75;0.40;;;17.80;11.20;;;;;;5129074;27;34424;-79
2022/09/16 10:53:33;;;;;;;1.23;0.63;;;17.80;11.00;;;;;;5108041;27;34099;-76
2022/09/16 10:56:04;;;;;;;1.45;0.40;;;17.80;11.50;;;;;;5077841;27;34222;-78
2022/09/16 10:58:30;;;;;;;1.95;0.45;;;17.70;12.00;;;;;;5093601;28;34088;-80
2022/09/16 11:01:25;;;;;;;0.88;0.40;;;17.80;13.20;;;;;;5104488;27;34432;-76
2022/09/16 11:04:13;;;;;;;2.00;0.40;;;17.80;10.80;;;;;;5090080;28;36609;-77
2022/09/16 11:06:54;;;;;;;1.60;0.40;;;17.90;11.90;;;;;;5090504;28;34323;-77
2022/09/16 11:09:37;;;;;;;0.30;0.30;;;18.00;10.80;;;;;;5109087;28;34087;-77
2022/09/16 11:12:38;;;;;;;1.10;0.47;;;18.10;10.90;;;;;;5094632;28;34264;-79
2022/09/16 11:15:35;;;;;;;0.65;0.40;;;18.00;9.00;;;;;;5090879;28;36584;-78
2022/09/16 11:18:24;;;;;;;2.85;0.47;;;18.00;8.70;;;;;;5091322;28;34329;-78
2022/09/16 11:21:15;;;;;;;2.38;0.47;;;18.10;10.30;;;;;;5122683;27;34194;-82
2022/09/16 11:24:06;;;;;;;0.85;0.40;;;18.30;9.00;;;;;;5133375;27;34017;-80
2022/09/16 11:27:08;;;;;;;0.88;0.60;;;18.50;8.60;;;;;;5133454;27;35823;-82
2022/09/16 11:29:56;;;;;;;0.80;0.50;;;19.00;7.90;;;;;;5117756;27;34183;-78
2022/09/16 11:32:50;;;;;;;0.45;0.40;;;19.40;8.80;;;;;;5134266;27;34160;-75
2022/09/16 11:35:38;;;;;;;0.30;0.30;;;19.70;8.80;;;;;;5121877;27;34565;-80
2022/09/16 11:38:29;;;;;;;0.30;0.30;;;19.70;7.80;;;;;;5132417;27;36647;-76
2022/09/16 11:41:00;;;;;;;1.17;0.40;;;19.50;7.10;;;;;;5125386;27;34180;-80
2022/09/16 11:43:57;;;;;;;0.47;0.30;;;19.30;10.10;;;;;;5112927;27;34780;-82
2022/09/16 11:46:51;;;;;;;0.75;0.20;;;18.80;9.00;;;;;;5094108;27;34179;-80
2022/09/16 11:49:42;;;;;;;0.35;0.32;;;18.50;11.20;;;;;;5106233;27;36545;-76
2022/09/16 11:52:42;;;;;;;0.32;0.30;;;18.30;12.30;;;;;;5108865;27;34175;-75
2022/09/16 11:55:23;;;;;;;1.52;0.40;;;18.10;12.30;;;;;;5109607;27;34169;-76
2022/09/16 11:58:01;;;;;;;0.30;0.30;;;18.10;11.80;;;;;;5107492;27;34044;-75
2022/09/16 12:00:30;;;;;;;0.20;0.20;;;18.20;12.50;;;;;;5089973;28;35927;-76
2022/09/16 12:03:09;;;;;;;0.20;0.20;;;18.40;12.60;;;;;;5107914;27;34175;-76
2022/09/16 12:05:41;;;;;;;0.25;0.25;;;18.60;11.80;;;;;;5103644;27;34291;-75
2022/09/16 12:08:27;;;;;;;0.20;0.20;;;18.60;10.60;;;;;;5111055;27;34600;-77
2022/09/16 12:10:59;;;;;;;0.55;0.30;;;18.60;8.40;;;;;;5111214;27;36866;-75
2022/09/16 12:13:43;;;;;;;0.80;0.20;;;18.40;11.60;;;;;;5071505;28;34137;-76
2022/09/16 12:16:20;;;;;;;2.42;0.20;;;18.40;10.50;;;;;;5088670;28;34476;-76
2022/09/16 12:18:51;;;;;;;1.17;0.30;;;18.40;10.70;;;;;;5101689;27;34041;-75
2022/09/16 12:21:37;;;;;;;1.13;0.38;;;18.40;11.80;;;;;;5099941;27;35498;-76
2022/09/16 12:24:20;;;;;;;0.57;0.20;;;18.50;11.50;;;;;;5127447;27;34163;-76
2022/09/16 12:26:54;;;;;;;0.20;0.20;;;18.70;9.90;;;;;;5095645;27;34296;-77
2022/09/16 12:29:53;;;;;;;1.05;0.22;;;18.80;10.20;;;;;;5110550;27;34451;-76
2022/09/16 12:32:34;;;;;;;2.72;0.20;;;19.10;8.60;;;;;;5084837;28;36200;-76
2022/09/16 12:35:09;;;;;;;0.10;0.10;;;19.40;9.70;;;;;;5102141;27;34353;-79
2022/09/16 12:37:44;;;;;;;0.80;0.40;;;19.70;10.80;;;;;;5095888;27;34397;-81
2022/09/16 12:40:19;;;;;;;1.25;0.30;;;20.00;10.00;;;;;;5111922;27;34410;-79
2022/09/16 12:43:23;;;;;;;1.30;0.30;;;20.40;8.80;;;;;;5110599;27;35638;-76
2022/09/16 12:46:22;;;;;;;0.28;0.20;;;20.50;3.00;;;;;;5095578;27;34301;-77
2022/09/16 12:49:15;;;;;;;1.08;0.30;;;20.50;4.70;;;;;;5128539;27;34169;-81
2022/09/16 12:52:08;;;;;;;0.80;0.20;;;20.50;5.90;;;;;;5110852;27;34527;-78
2022/09/16 12:54:58;;;;;;;0.98;0.32;;;20.40;7.30;;;;;;5096647;27;36946;-78
2022/09/16 12:57:47;;;;;;;1.65;0.40;;;20.30;5.60;;;;;;5093948;27;34270;-80
2022/09/16 13:00:44;;;;;;;0.70;0.38;;;20.00;4.20;;;;;;5104745;27;34404;-80
2022/09/16 13:03:17;;;;;;;1.25;0.43;;;19.80;4.90;;;;;;5103653;28;34354;-79
2022/09/16 13:05:47;;;;;;;0.20;0.20;;;19.70;7.40;;;;;;5109320;28;35680;-82
2022/09/16 13:08:27;;;;;;;2.58;0.30;;;19.50;8.90;;;;;;5124531;27;34482;-81
2022/09/16 13:10:57;;;;;;;1.38;0.50;;;19.30;6.20;;;;;;5110683;27;34430;-79
2022/09/16 13:13:32;;;;;;;0.38;0.13;;;19.10;9.70;;;;;;5113951;27;34179;-81
2022/09/16 13:16:01;;;;;;;0.20;0.17;;;19.00;9.60;;;;;;5110484;27;35293;-76
2022/09/16 13:18:49;;;;;;;0.65;0.20;;;18.80;10.20;;;;;;5087612;28;34013;-84
2022/09/16 13:21:38;;;;;;;0.20;0.20;;;18.70;8.30;;;;;;5105018;28;34559;-83
2022/09/16 13:24:14;;;;;;;1.17;0.25;;;18.60;9.20;;;;;;5106966;28;34215;-80
2022/09/16 13:26:42;;;;;;;0.52;0.30;;;18.40;9.20;;;;;;5063479;27;35717;-82
2022/09/16 13:29:37;;;;;;;0.38;0.28;;;18.20;10.80;;;;;;5123047;27;34353;-77
2022/09/16 13:32:03;;;;;;;2.55;0.30;;;18.10;10.20;;;;;;5104253;27;34481;-76
2022/09/16 13:34:29;;;;;;;0.52;0.43;;;17.90;11.70;;;;;;5100317;28;34064;-77